EDT,Max TemperatureF,Mean TemperatureF,Min TemperatureF,Max Dew PointF,MeanDew PointF,Min DewpointF,Max Humidity, Mean Humidity, Min Humidity, Max Sea Level PressureIn, Mean Sea Level PressureIn, Min Sea Level PressureIn, Max VisibilityMiles, Mean VisibilityMiles, Min VisibilityMiles, Max Wind SpeedMPH, Mean Wind SpeedMPH, Max Gust SpeedMPH,PrecipitationIn, CloudCover, Events, WindDirDegrees
2013-8-1,82,78,73,73,72,70,94,83,70,30.05,29.96,29.90,10,10,5,12,6,,0.00,6,Rain-Thunderstorm,202
2013-8-2,89,81,73,75,73,72,100,81,58,30.04,29.99,29.93,10,8,3,15,5,21,0.00,4,Thunderstorm,236
2013-8-3,89,82,75,77,74,70,94,79,59,30.05,30.00,29.94,10,9,5,14,7,20,0.00,4,Rain-Thunderstorm,222
2013-8-4,82,73,64,73,67,59,100,79,48,30.05,29.97,29.90,10,9,0,14,3,18,0.00,1,Fog,13
2013-8-5,86,73,60,64,60,55,100,67,37,30.12,30.07,30.04,10,8,0,8,2,,0.00,2,Fog-Rain,111
2013-8-6,86,77,68,70,64,59,94,68,45,30.10,30.07,30.03,10,10,7,10,4,,0.00,5,Rain,171
2013-8-7,87,76,66,72,69,64,100,75,49,30.13,30.10,30.06,10,10,1,15,4,18,0.00,2,,171
2013-8-8,89,80,71,75,72,70,100,78,52,30.10,30.07,30.02,10,10,5,10,4,,0.00,3,Rain,174
2013-8-9,91,84,77,77,74,72,94,76,52,30.08,30.05,30.00,10,10,7,16,9,21,0.00,2,,226
2013-8-10,95,84,73,77,73,72,100,75,49,30.13,30.07,30.01,10,10,10,14,8,22,0.02,2,Rain-Thunderstorm,243
2013-8-11,91,81,71,77,73,72,100,79,55,30.12,30.08,30.01,10,10,5,13,2,,0.01,2,Rain-Thunderstorm,257
2013-8-12,93,83,73,77,75,72,100,76,52,30.04,30.00,29.96,10,10,7,8,4,,0.00,0,,285
2013-8-13,91,82,73,77,75,72,100,82,55,29.97,29.89,29.81,10,10,7,13,5,18,0.00,2,Rain-Thunderstorm,233
2013-8-14,77,70,62,75,64,55,100,79,53,30.11,29.97,29.82,10,10,10,20,7,25,0.00,5,Rain-Thunderstorm,358
2013-8-15,77,68,59,63,60,57,94,77,54,30.16,30.12,30.09,10,10,7,12,5,17,0.00,3,,32
2013-8-16,73,68,64,66,62,59,100,77,65,30.18,30.14,30.10,10,10,7,9,5,,0.00,8,Rain,29
2013-8-17,80,72,64,75,70,63,100,95,78,30.18,30.14,30.11,10,9,2,12,4,16,0.00,8,Rain,45
2013-8-18,86,78,69,73,71,68,100,84,58,30.21,30.16,30.11,10,9,3,9,3,,0.00,4,,275
2013-8-19,77,72,66,72,70,66,100,94,78,30.21,30.16,30.11,10,8,1,7,2,,0.00,6,Rain,34
2013-8-20,84,76,69,73,72,70,100,86,66,30.20,30.17,30.12,10,9,4,7,1,,0.00,6,Rain,78
2013-8-21,87,79,71,77,72,72,100,83,58,30.24,30.18,30.13,10,9,5,9,1,,0.00,3,Rain-Thunderstorm,166
2013-8-22,87,78,69,73,72,68,100,85,58,30.16,30.10,30.01,10,8,1,9,2,,0.00,0,,237
2013-8-23,89,79,69,73,71,68,100,82,52,30.05,30.00,29.93,10,8,5,16,3,24,0.00,1,Rain-Thunderstorm,265
2013-8-24,82,73,64,70,64,63,100,75,51,30.30,30.19,30.06,10,10,7,15,8,21,0.00,3,Thunderstorm,32
2013-8-25,80,70,59,63,60,55,100,73,44,30.39,30.32,30.29,10,10,7,14,6,18,0.00,0,,46
2013-8-26,82,66,51,64,57,48,100,74,32,30.33,30.24,30.13,10,8,0,7,1,,0.00,0,Rain,344
2013-8-27,87,74,62,72,66,57,100,75,55,30.14,30.04,29.98,10,10,10,9,4,,0.00,0,,239
2013-8-28,86,78,69,77,72,66,100,84,66,30.00,29.96,29.89,10,9,2,10,6,,0.00,2,Rain,238
2013-8-29,86,78,69,77,73,68,100,86,66,30.03,29.93,29.84,10,8,2,12,6,16,0.00,5,Rain,349
2013-8-30,87,74,62,70,67,63,100,80,51,30.08,30.02,29.98,10,8,1,8,3,,0.00,2,Rain,80
2013-8-31,89,78,66,73,69,64,100,78,43,30.01,29.96,29.90,10,8,0,12,3,16,0.00,2,Fog-Rain,210